sensor_id;sensor_type;location;lat;lon;timestamp;pressure;altitude;pressure_sealevel;temperature;humidity
9538;BME280;4807;48.024;11.726;2023-03-15T00:02:55;94248.69;;;2.21;83.98
9538;BME280;4807;48.024;11.726;2023-03-15T00:06:05;94252.91;;;2.38;84.03
9538;BME280;4807;48.024;11.726;2023-03-15T00:09:13;94255.03;;;2.51;83.77
9538;BME280;4807;48.024;11.726;2023-03-15T00:12:21;94248.69;;;2.68;83.51
9538;BME280;4807;48.024;11.726;2023-03-15T00:15:30;94244.56;;;2.82;82.99
9538;BME280;4807;48.024;11.726;2023-03-15T00:18:38;94249.00;;;2.81;82.67
9538;BME280;4807;48.024;11.726;2023-03-15T00:21:47;94245.34;;;2.90;82.99
9538;BME280;4807;48.024;11.726;2023-03-15T00:24:56;94242.22;;;2.87;82.52
9538;BME280;4807;48.024;11.726;2023-03-15T00:28:04;94248.41;;;3.02;82.56
9538;BME280;4807;48.024;11.726;2023-03-15T00:31:16;94237.38;;;3.06;81.87
9538;BME280;4807;48.024;11.726;2023-03-15T00:34:24;94250.66;;;3.13;82.03
9538;BME280;4807;48.024;11.726;2023-03-15T00:37:34;94258.50;;;3.21;81.58
9538;BME280;4807;48.024;11.726;2023-03-15T00:40:43;94262.06;;;3.28;81.17
9538;BME280;4807;48.024;11.726;2023-03-15T00:47:13;94254.94;;;3.37;80.79
9538;BME280;4807;48.024;11.726;2023-03-15T00:50:22;94263.00;;;3.35;80.20
9538;BME280;4807;48.024;11.726;2023-03-15T00:53:33;94243.00;;;3.26;80.46
9538;BME280;4807;48.024;11.726;2023-03-15T00:56:42;94230.78;;;3.11;81.23
9538;BME280;4807;48.024;11.726;2023-03-15T00:59:50;94229.63;;;3.13;81.48
9538;BME280;4807;48.024;11.726;2023-03-15T01:03:00;94235.25;;;3.02;81.96
9538;BME280;4807;48.024;11.726;2023-03-15T01:06:11;94240.88;;;2.99;82.12
9538;BME280;4807;48.024;11.726;2023-03-15T01:09:21;94237.22;;;3.08;82.21
9538;BME280;4807;48.024;11.726;2023-03-15T01:12:31;94245.56;;;3.12;82.50
9538;BME280;4807;48.024;11.726;2023-03-15T01:15:45;94256.38;;;3.17;82.02
9538;BME280;4807;48.024;11.726;2023-03-15T01:18:54;94296.22;;;2.66;83.87
9538;BME280;4807;48.024;11.726;2023-03-15T01:22:02;94327.28;;;1.74;85.18
9538;BME280;4807;48.024;11.726;2023-03-15T01:25:12;94342.50;;;0.96;86.87
9538;BME280;4807;48.024;11.726;2023-03-15T01:28:21;94331.81;;;0.81;87.98
9538;BME280;4807;48.024;11.726;2023-03-15T01:31:30;94322.28;;;0.80;88.27
9538;BME280;4807;48.024;11.726;2023-03-15T01:34:38;94317.25;;;0.87;89.17
9538;BME280;4807;48.024;11.726;2023-03-15T01:37:48;94311.81;;;0.80;89.12
9538;BME280;4807;48.024;11.726;2023-03-15T01:41:04;94302.38;;;0.95;88.30
9538;BME280;4807;48.024;11.726;2023-03-15T01:44:14;94292.88;;;0.94;88.69
9538;BME280;4807;48.024;11.726;2023-03-15T01:47:25;94280.44;;;0.96;88.20
9538;BME280;4807;48.024;11.726;2023-03-15T01:50:35;94271.59;;;0.97;88.38
9538;BME280;4807;48.024;11.726;2023-03-15T01:53:52;94299.75;;;0.95;88.85
9538;BME280;4807;48.024;11.726;2023-03-15T01:57:09;94297.81;;;1.05;89.28
9538;BME280;4807;48.024;11.726;2023-03-15T02:00:20;94294.44;;;1.21;87.79
9538;BME280;4807;48.024;11.726;2023-03-15T02:03:41;94309.03;;;1.32;87.87
9538;BME280;4807;48.024;11.726;2023-03-15T02:06:57;94314.41;;;1.30;87.66
9538;BME280;4807;48.024;11.726;2023-03-15T02:10:13;94322.13;;;1.32;87.21
9538;BME280;4807;48.024;11.726;2023-03-15T02:13:28;94321.81;;;1.35;86.87
9538;BME280;4807;48.024;11.726;2023-03-15T02:16:41;94321.81;;;1.35;87.52
9538;BME280;4807;48.024;11.726;2023-03-15T02:20:05;94324.44;;;1.35;86.91
9538;BME280;4807;48.024;11.726;2023-03-15T02:23:19;94325.28;;;1.43;86.81
9538;BME280;4807;48.024;11.726;2023-03-15T02:26:34;94339.53;;;1.41;86.23
9538;BME280;4807;48.024;11.726;2023-03-15T02:29:45;94344.44;;;1.36;86.67
9538;BME280;4807;48.024;11.726;2023-03-15T02:32:54;94346.13;;;1.45;86.80
9538;BME280;4807;48.024;11.726;2023-03-15T02:36:14;94353.81;;;1.54;86.31
9538;BME280;4807;48.024;11.726;2023-03-15T02:39:23;94362.69;;;1.53;86.15
9538;BME280;4807;48.024;11.726;2023-03-15T02:42:33;94370.06;;;1.58;86.50
9538;BME280;4807;48.024;11.726;2023-03-15T02:45:44;94380.41;;;1.51;86.45
9538;BME280;4807;48.024;11.726;2023-03-15T02:48:54;94389.09;;;1.60;86.23
9538;BME280;4807;48.024;11.726;2023-03-15T02:52:04;94389.41;;;1.57;85.71
9538;BME280;4807;48.024;11.726;2023-03-15T02:55:12;94390.41;;;1.64;85.95
9538;BME280;4807;48.024;11.726;2023-03-15T02:58:21;94397.47;;;1.64;85.82
9538;BME280;4807;48.024;11.726;2023-03-15T03:01:31;94402.09;;;1.70;85.58
9538;BME280;4807;48.024;11.726;2023-03-15T03:04:43;94408.75;;;1.56;86.27
9538;BME280;4807;48.024;11.726;2023-03-15T03:07:51;94420.72;;;1.50;86.63
9538;BME280;4807;48.024;11.726;2023-03-15T03:11:00;94431.25;;;1.59;86.27
9538;BME280;4807;48.024;11.726;2023-03-15T03:14:09;94427.78;;;1.58;86.31
9538;BME280;4807;48.024;11.726;2023-03-15T03:17:22;94451.38;;;1.50;86.04
9538;BME280;4807;48.024;11.726;2023-03-15T03:20:31;94465.75;;;1.38;86.05
9538;BME280;4807;48.024;11.726;2023-03-15T03:23:39;94481.91;;;1.25;85.11
9538;BME280;4807;48.024;11.726;2023-03-15T03:26:48;94495.41;;;1.04;86.09
9538;BME280;4807;48.024;11.726;2023-03-15T03:29:57;94499.25;;;0.92;86.96
9538;BME280;4807;48.024;11.726;2023-03-15T03:33:07;94510.78;;;0.82;86.84
9538;BME280;4807;48.024;11.726;2023-03-15T03:36:15;94527.88;;;0.68;87.46
9538;BME280;4807;48.024;11.726;2023-03-15T03:39:24;94540.22;;;0.58;87.94
9538;BME280;4807;48.024;11.726;2023-03-15T03:42:32;94554.69;;;0.44;88.02
9538;BME280;4807;48.024;11.726;2023-03-15T03:45:42;94557.59;;;0.41;88.63
9538;BME280;4807;48.024;11.726;2023-03-15T03:48:52;94581.47;;;0.38;89.45
9538;BME280;4807;48.024;11.726;2023-03-15T03:52:01;94591.25;;;0.36;89.84
9538;BME280;4807;48.024;11.726;2023-03-15T03:55:10;94596.34;;;0.37;89.37
9538;BME280;4807;48.024;11.726;2023-03-15T03:58:20;94609.44;;;0.37;89.99
9538;BME280;4807;48.024;11.726;2023-03-15T04:01:52;94612.06;;;0.37;89.79
9538;BME280;4807;48.024;11.726;2023-03-15T04:05:02;94616.34;;;0.38;90.12
9538;BME280;4807;48.024;11.726;2023-03-15T04:08:11;94634.81;;;0.37;89.56
9538;BME280;4807;48.024;11.726;2023-03-15T04:11:19;94635.41;;;0.31;88.66
9538;BME280;4807;48.024;11.726;2023-03-15T04:14:33;94648.34;;;0.32;89.09
9538;BME280;4807;48.024;11.726;2023-03-15T04:17:45;94656.59;;;0.37;88.83
9538;BME280;4807;48.024;11.726;2023-03-15T04:20:54;94668.84;;;0.37;87.70
9538;BME280;4807;48.024;11.726;2023-03-15T04:24:04;94677.53;;;0.37;87.43
9538;BME280;4807;48.024;11.726;2023-03-15T04:27:33;94675.88;;;0.36;86.62
9538;BME280;4807;48.024;11.726;2023-03-15T04:31:02;94692.97;;;0.41;87.72
9538;BME280;4807;48.024;11.726;2023-03-15T04:34:29;94696.66;;;0.48;88.23
9538;BME280;4807;48.024;11.726;2023-03-15T04:37:53;94715.25;;;0.45;87.78
9538;BME280;4807;48.024;11.726;2023-03-15T04:41:20;94720.16;;;0.30;88.11
9538;BME280;4807;48.024;11.726;2023-03-15T04:44:47;94723.78;;;0.19;89.19
9538;BME280;4807;48.024;11.726;2023-03-15T04:48:18;94730.81;;;0.19;88.40
9538;BME280;4807;48.024;11.726;2023-03-15T04:51:47;94742.22;;;0.18;87.15
9538;BME280;4807;48.024;11.726;2023-03-15T04:55:11;94754.38;;;0.19;87.47
9538;BME280;4807;48.024;11.726;2023-03-15T04:58:38;94761.38;;;0.18;86.35
9538;BME280;4807;48.024;11.726;2023-03-15T05:02:18;94761.13;;;0.21;86.42
9538;BME280;4807;48.024;11.726;2023-03-15T05:05:45;94768.59;;;0.16;85.41
9538;BME280;4807;48.024;11.726;2023-03-15T05:09:12;94773.50;;;0.19;85.96
9538;BME280;4807;48.024;11.726;2023-03-15T05:12:52;94785.38;;;0.23;86.73
9538;BME280;4807;48.024;11.726;2023-03-15T05:16:17;94792.53;;;0.21;86.66
9538;BME280;4807;48.024;11.726;2023-03-15T05:19:54;94801.34;;;0.30;86.65
9538;BME280;4807;48.024;11.726;2023-03-15T05:23:26;94809.91;;;0.22;86.46
9538;BME280;4807;48.024;11.726;2023-03-15T05:26:52;94826.56;;;0.21;86.57
9538;BME280;4807;48.024;11.726;2023-03-15T05:30:15;94831.69;;;0.04;86.55
9538;BME280;4807;48.024;11.726;2023-03-15T05:33:47;94832.13;;;-0.01;86.72
9538;BME280;4807;48.024;11.726;2023-03-15T05:37:31;94847.81;;;-0.01;86.94
9538;BME280;4807;48.024;11.726;2023-03-15T05:41:08;94860.91;;;-0.01;86.94
9538;BME280;4807;48.024;11.726;2023-03-15T05:44:27;94861.31;;;0.04;86.53
9538;BME280;4807;48.024;11.726;2023-03-15T05:47:56;94870.00;;;0.14;87.08
9538;BME280;4807;48.024;11.726;2023-03-15T05:51:22;94870.38;;;0.19;86.89
9538;BME280;4807;48.024;11.726;2023-03-15T05:54:51;94885.13;;;0.20;86.31
9538;BME280;4807;48.024;11.726;2023-03-15T05:58:23;94888.56;;;0.21;86.33
9538;BME280;4807;48.024;11.726;2023-03-15T06:01:54;94901.22;;;0.25;86.23
9538;BME280;4807;48.024;11.726;2023-03-15T06:05:10;94903.84;;;0.25;85.41
9538;BME280;4807;48.024;11.726;2023-03-15T06:08:19;94906.91;;;0.30;84.95
9538;BME280;4807;48.024;11.726;2023-03-15T06:11:29;94911.00;;;0.33;85.71
9538;BME280;4807;48.024;11.726;2023-03-15T06:14:39;94920.00;;;0.30;84.86
9538;BME280;4807;48.024;11.726;2023-03-15T06:17:48;94921.78;;;0.40;84.61
9538;BME280;4807;48.024;11.726;2023-03-15T06:20:58;94927.03;;;0.40;85.09
9538;BME280;4807;48.024;11.726;2023-03-15T06:24:07;94935.13;;;0.46;84.64
9538;BME280;4807;48.024;11.726;2023-03-15T06:27:16;94939.94;;;0.51;84.08
9538;BME280;4807;48.024;11.726;2023-03-15T06:30:28;94939.28;;;0.49;83.43
9538;BME280;4807;48.024;11.726;2023-03-15T06:33:39;94941.19;;;0.47;83.73
9538;BME280;4807;48.024;11.726;2023-03-15T06:36:51;94942.44;;;0.43;83.78
9538;BME280;4807;48.024;11.726;2023-03-15T06:39:59;94940.78;;;0.51;83.92
9538;BME280;4807;48.024;11.726;2023-03-15T06:43:07;94951.69;;;0.47;83.40
9538;BME280;4807;48.024;11.726;2023-03-15T06:46:20;94950.16;;;0.44;83.33
9538;BME280;4807;48.024;11.726;2023-03-15T06:49:29;94954.31;;;0.37;83.67
9538;BME280;4807;48.024;11.726;2023-03-15T06:52:40;94954.31;;;0.47;83.33
9538;BME280;4807;48.024;11.726;2023-03-15T06:55:49;94955.09;;;0.66;83.49
9538;BME280;4807;48.024;11.726;2023-03-15T06:58:58;94956.84;;;0.75;82.28
9538;BME280;4807;48.024;11.726;2023-03-15T07:02:12;94960.88;;;0.80;81.71
9538;BME280;4807;48.024;11.726;2023-03-15T07:05:21;94967.06;;;0.88;82.06
9538;BME280;4807;48.024;11.726;2023-03-15T07:08:30;94976.28;;;0.92;81.54
9538;BME280;4807;48.024;11.726;2023-03-15T07:11:39;94970.59;;;1.43;81.50
9538;BME280;4807;48.024;11.726;2023-03-15T07:14:47;94975.69;;;1.72;77.89
9538;BME280;4807;48.024;11.726;2023-03-15T07:17:55;94976.75;;;2.24;76.35
9538;BME280;4807;48.024;11.726;2023-03-15T07:21:05;94975.47;;;2.46;76.07
9538;BME280;4807;48.024;11.726;2023-03-15T07:24:15;94974.38;;;2.04;74.80
9538;BME280;4807;48.024;11.726;2023-03-15T07:27:23;94986.31;;;1.98;75.34
9538;BME280;4807;48.024;11.726;2023-03-15T07:30:31;94982.28;;;2.21;75.39
9538;BME280;4807;48.024;11.726;2023-03-15T07:33:40;95003.06;;;2.15;76.15
9538;BME280;4807;48.024;11.726;2023-03-15T07:36:52;94995.97;;;2.43;75.65
9538;BME280;4807;48.024;11.726;2023-03-15T07:40:02;95003.53;;;2.63;75.44
9538;BME280;4807;48.024;11.726;2023-03-15T07:43:15;95000.09;;;2.45;75.62
9538;BME280;4807;48.024;11.726;2023-03-15T07:46:26;95000.56;;;2.58;76.03
9538;BME280;4807;48.024;11.726;2023-03-15T07:49:34;95000.97;;;2.72;73.08
9538;BME280;4807;48.024;11.726;2023-03-15T07:52:42;95002.06;;;3.56;72.56
9538;BME280;4807;48.024;11.726;2023-03-15T07:55:52;95003.47;;;3.51;71.68
9538;BME280;4807;48.024;11.726;2023-03-15T07:59:00;94998.66;;;3.12;73.08
9538;BME280;4807;48.024;11.726;2023-03-15T08:02:11;95006.19;;;3.07;72.16
9538;BME280;4807;48.024;11.726;2023-03-15T08:05:20;94995.81;;;3.65;71.92
9538;BME280;4807;48.024;11.726;2023-03-15T08:08:28;95005.31;;;3.24;70.32
9538;BME280;4807;48.024;11.726;2023-03-15T08:11:38;95003.84;;;3.04;71.87
9538;BME280;4807;48.024;11.726;2023-03-15T08:14:49;95005.16;;;3.00;72.18
9538;BME280;4807;48.024;11.726;2023-03-15T08:17:59;95005.38;;;3.06;71.91
9538;BME280;4807;48.024;11.726;2023-03-15T08:21:07;95004.50;;;3.24;72.53
9538;BME280;4807;48.024;11.726;2023-03-15T08:24:15;95004.78;;;2.77;70.70
9538;BME280;4807;48.024;11.726;2023-03-15T08:27:25;95001.66;;;2.74;72.57
9538;BME280;4807;48.024;11.726;2023-03-15T08:30:33;95007.09;;;2.98;72.55
9538;BME280;4807;48.024;11.726;2023-03-15T08:33:42;95000.25;;;3.05;70.10
9538;BME280;4807;48.024;11.726;2023-03-15T08:36:50;94999.38;;;3.22;71.30
9538;BME280;4807;48.024;11.726;2023-03-15T08:39:59;95002.28;;;3.71;70.07
9538;BME280;4807;48.024;11.726;2023-03-15T08:43:14;95002.34;;;3.53;70.49
9538;BME280;4807;48.024;11.726;2023-03-15T08:46:22;95002.50;;;3.52;71.63
9538;BME280;4807;48.024;11.726;2023-03-15T08:49:31;94992.72;;;3.70;69.22
9538;BME280;4807;48.024;11.726;2023-03-15T08:52:40;94993.56;;;3.70;69.62
9538;BME280;4807;48.024;11.726;2023-03-15T08:55:48;94989.69;;;3.99;68.83
9538;BME280;4807;48.024;11.726;2023-03-15T08:58:57;94985.81;;;3.69;66.19
9538;BME280;4807;48.024;11.726;2023-03-15T09:02:08;94992.47;;;3.81;67.29
9538;BME280;4807;48.024;11.726;2023-03-15T09:05:17;94990.53;;;3.99;66.81
9538;BME280;4807;48.024;11.726;2023-03-15T09:08:26;94991.66;;;4.79;65.54
9538;BME280;4807;48.024;11.726;2023-03-15T09:11:34;94994.97;;;4.89;63.09
9538;BME280;4807;48.024;11.726;2023-03-15T09:14:44;94987.19;;;4.47;61.20
9538;BME280;4807;48.024;11.726;2023-03-15T09:17:52;94994.78;;;5.23;62.53
9538;BME280;4807;48.024;11.726;2023-03-15T09:21:01;94989.19;;;5.26;60.77
9538;BME280;4807;48.024;11.726;2023-03-15T09:24:09;94991.50;;;4.89;59.34
9538;BME280;4807;48.024;11.726;2023-03-15T09:27:17;95003.56;;;4.91;61.54
9538;BME280;4807;48.024;11.726;2023-03-15T09:30:27;95002.22;;;5.12;59.71
9538;BME280;4807;48.024;11.726;2023-03-15T09:33:36;94995.91;;;5.37;61.16
9538;BME280;4807;48.024;11.726;2023-03-15T09:36:44;94996.78;;;4.81;60.96
9538;BME280;4807;48.024;11.726;2023-03-15T09:39:58;95003.88;;;4.80;62.11
9538;BME280;4807;48.024;11.726;2023-03-15T09:43:44;95000.91;;;4.67;63.91
9538;BME280;4807;48.024;11.726;2023-03-15T09:47:11;95008.47;;;4.54;61.19
9538;BME280;4807;48.024;11.726;2023-03-15T09:50:30;95006.31;;;4.49;62.39
9538;BME280;4807;48.024;11.726;2023-03-15T09:53:45;95008.31;;;4.64;62.55
9538;BME280;4807;48.024;11.726;2023-03-15T09:57:01;95004.84;;;5.12;59.94
9538;BME280;4807;48.024;11.726;2023-03-15T10:00:18;95013.78;;;5.19;58.19
9538;BME280;4807;48.024;11.726;2023-03-15T10:03:34;95009.13;;;5.13;60.70
9538;BME280;4807;48.024;11.726;2023-03-15T10:06:50;95002.53;;;5.33;59.99
9538;BME280;4807;48.024;11.726;2023-03-15T10:10:00;95009.59;;;5.49;55.98
9538;BME280;4807;48.024;11.726;2023-03-15T10:13:26;95022.31;;;5.37;55.23
9538;BME280;4807;48.024;11.726;2023-03-15T10:16:40;95019.34;;;5.48;55.35
9538;BME280;4807;48.024;11.726;2023-03-15T10:19:54;95027.28;;;5.24;56.09
9538;BME280;4807;48.024;11.726;2023-03-15T10:23:14;95028.94;;;5.09;56.98
9538;BME280;4807;48.024;11.726;2023-03-15T10:26:31;95017.06;;;5.21;57.97
9538;BME280;4807;48.024;11.726;2023-03-15T10:29:43;95033.22;;;5.34;58.04
9538;BME280;4807;48.024;11.726;2023-03-15T10:32:57;95021.34;;;5.30;57.46
9538;BME280;4807;48.024;11.726;2023-03-15T10:36:14;95030.59;;;5.26;57.80
9538;BME280;4807;48.024;11.726;2023-03-15T10:39:24;95021.34;;;4.81;56.42
9538;BME280;4807;48.024;11.726;2023-03-15T10:42:33;95024.63;;;4.59;56.33
9538;BME280;4807;48.024;11.726;2023-03-15T10:45:41;95022.09;;;4.33;58.41
9538;BME280;4807;48.024;11.726;2023-03-15T10:48:56;95020.72;;;4.13;57.64
9538;BME280;4807;48.024;11.726;2023-03-15T10:52:25;95017.03;;;3.98;57.28
9538;BME280;4807;48.024;11.726;2023-03-15T10:55:40;95017.84;;;3.98;56.57
9538;BME280;4807;48.024;11.726;2023-03-15T10:58:52;95024.38;;;4.20;54.63
9538;BME280;4807;48.024;11.726;2023-03-15T11:02:21;95026.78;;;4.72;55.96
9538;BME280;4807;48.024;11.726;2023-03-15T11:05:32;95016.41;;;4.78;53.94
9538;BME280;4807;48.024;11.726;2023-03-15T11:08:46;95017.41;;;5.02;55.05
9538;BME280;4807;48.024;11.726;2023-03-15T11:12:00;95018.38;;;4.76;55.94
9538;BME280;4807;48.024;11.726;2023-03-15T11:15:13;95016.34;;;4.30;52.84
9538;BME280;4807;48.024;11.726;2023-03-15T11:18:29;95014.09;;;4.67;55.85
9538;BME280;4807;48.024;11.726;2023-03-15T11:21:39;95000.06;;;5.07;53.21
9538;BME280;4807;48.024;11.726;2023-03-15T11:24:51;95003.44;;;5.64;53.97
9538;BME280;4807;48.024;11.726;2023-03-15T11:28:01;95005.09;;;5.73;50.93
9538;BME280;4807;48.024;11.726;2023-03-15T11:31:10;94994.91;;;6.01;53.08
9538;BME280;4807;48.024;11.726;2023-03-15T11:34:36;94995.38;;;6.13;54.11
9538;BME280;4807;48.024;11.726;2023-03-15T11:37:49;94995.03;;;6.47;52.19
9538;BME280;4807;48.024;11.726;2023-03-15T11:41:26;94995.72;;;6.41;52.58
9538;BME280;4807;48.024;11.726;2023-03-15T11:44:40;94992.78;;;6.05;51.87
9538;BME280;4807;48.024;11.726;2023-03-15T11:47:55;94988.00;;;5.37;50.21
9538;BME280;4807;48.024;11.726;2023-03-15T11:51:05;94988.97;;;5.36;50.05
9538;BME280;4807;48.024;11.726;2023-03-15T11:54:16;94980.06;;;5.37;52.17
9538;BME280;4807;48.024;11.726;2023-03-15T11:57:42;94978.34;;;5.68;49.87
9538;BME280;4807;48.024;11.726;2023-03-15T12:00:55;94962.38;;;6.01;49.41
9538;BME280;4807;48.024;11.726;2023-03-15T12:04:28;94960.41;;;6.03;47.86
9538;BME280;4807;48.024;11.726;2023-03-15T12:08:16;94953.31;;;6.26;46.87
9538;BME280;4807;48.024;11.726;2023-03-15T12:11:40;94955.25;;;6.40;44.67
9538;BME280;4807;48.024;11.726;2023-03-15T12:15:01;94942.63;;;7.11;45.46
9538;BME280;4807;48.024;11.726;2023-03-15T12:18:24;94947.69;;;6.75;45.54
9538;BME280;4807;48.024;11.726;2023-03-15T12:21:39;94950.78;;;6.10;44.79
9538;BME280;4807;48.024;11.726;2023-03-15T12:24:48;94959.56;;;5.55;47.55
9538;BME280;4807;48.024;11.726;2023-03-15T12:27:57;94946.41;;;5.39;48.56
9538;BME280;4807;48.024;11.726;2023-03-15T12:31:12;94953.84;;;5.35;47.18
9538;BME280;4807;48.024;11.726;2023-03-15T12:34:35;94945.59;;;5.38;47.46
9538;BME280;4807;48.024;11.726;2023-03-15T12:37:47;94942.06;;;5.54;45.19
9538;BME280;4807;48.024;11.726;2023-03-15T12:40:57;94938.03;;;5.74;47.48
9538;BME280;4807;48.024;11.726;2023-03-15T12:47:48;94931.19;;;6.50;46.79
9538;BME280;4807;48.024;11.726;2023-03-15T12:51:44;94934.84;;;6.72;45.75
9538;BME280;4807;48.024;11.726;2023-03-15T12:55:10;94935.75;;;6.64;44.96
9538;BME280;4807;48.024;11.726;2023-03-15T12:58:28;94936.94;;;6.76;46.35
9538;BME280;4807;48.024;11.726;2023-03-15T13:01:41;94937.50;;;6.72;45.05
9538;BME280;4807;48.024;11.726;2023-03-15T13:04:59;94934.97;;;6.78;47.33
9538;BME280;4807;48.024;11.726;2023-03-15T13:08:19;94938.38;;;6.10;46.14
9538;BME280;4807;48.024;11.726;2023-03-15T13:11:32;94937.06;;;6.15;47.14
9538;BME280;4807;48.024;11.726;2023-03-15T13:14:52;94943.78;;;6.17;47.35
9538;BME280;4807;48.024;11.726;2023-03-15T13:18:12;94941.16;;;6.17;46.36
9538;BME280;4807;48.024;11.726;2023-03-15T13:21:30;94935.00;;;5.94;45.67
9538;BME280;4807;48.024;11.726;2023-03-15T13:24:50;94939.66;;;5.84;47.42
9538;BME280;4807;48.024;11.726;2023-03-15T13:28:12;94934.56;;;6.13;50.24
9538;BME280;4807;48.024;11.726;2023-03-15T13:31:25;94938.50;;;6.48;47.58
9538;BME280;4807;48.024;11.726;2023-03-15T13:34:37;94936.44;;;6.81;44.93
9538;BME280;4807;48.024;11.726;2023-03-15T13:37:47;94935.97;;;6.32;47.38
9538;BME280;4807;48.024;11.726;2023-03-15T13:40:57;94938.41;;;6.33;47.79
9538;BME280;4807;48.024;11.726;2023-03-15T13:44:17;94946.53;;;6.01;47.67
9538;BME280;4807;48.024;11.726;2023-03-15T13:47:25;94946.56;;;5.85;46.80
9538;BME280;4807;48.024;11.726;2023-03-15T13:50:34;94944.66;;;6.09;46.24
9538;BME280;4807;48.024;11.726;2023-03-15T13:53:46;94940.09;;;6.26;45.83
9538;BME280;4807;48.024;11.726;2023-03-15T13:56:59;94952.00;;;6.30;45.12
9538;BME280;4807;48.024;11.726;2023-03-15T14:00:15;94945.84;;;6.61;48.15
9538;BME280;4807;48.024;11.726;2023-03-15T14:03:26;94950.66;;;6.80;48.03
9538;BME280;4807;48.024;11.726;2023-03-15T14:06:34;94947.53;;;6.76;46.39
9538;BME280;4807;48.024;11.726;2023-03-15T14:09:44;94930.00;;;6.75;46.92
9538;BME280;4807;48.024;11.726;2023-03-15T14:12:54;94939.88;;;6.59;44.45
9538;BME280;4807;48.024;11.726;2023-03-15T14:16:06;94940.94;;;6.49;45.92
9538;BME280;4807;48.024;11.726;2023-03-15T14:19:23;94936.97;;;6.31;46.54
9538;BME280;4807;48.024;11.726;2023-03-15T14:22:32;94950.94;;;6.39;44.90
9538;BME280;4807;48.024;11.726;2023-03-15T14:25:49;94953.59;;;6.62;46.74
9538;BME280;4807;48.024;11.726;2023-03-15T14:29:05;94950.13;;;6.62;45.06
9538;BME280;4807;48.024;11.726;2023-03-15T14:32:25;94949.53;;;6.74;46.55
9538;BME280;4807;48.024;11.726;2023-03-15T14:35:43;94941.59;;;6.97;46.00
9538;BME280;4807;48.024;11.726;2023-03-15T14:38:54;94955.53;;;7.06;45.60
9538;BME280;4807;48.024;11.726;2023-03-15T14:42:08;94957.53;;;6.89;45.70
9538;BME280;4807;48.024;11.726;2023-03-15T14:45:18;94953.53;;;6.47;45.43
9538;BME280;4807;48.024;11.726;2023-03-15T14:48:29;94958.16;;;6.23;45.72
9538;BME280;4807;48.024;11.726;2023-03-15T14:51:38;94952.31;;;5.57;45.98
9538;BME280;4807;48.024;11.726;2023-03-15T14:54:49;94962.00;;;5.65;47.07
9538;BME280;4807;48.024;11.726;2023-03-15T14:57:59;94958.50;;;5.81;47.60
9538;BME280;4807;48.024;11.726;2023-03-15T15:01:11;94963.97;;;5.71;48.78
9538;BME280;4807;48.024;11.726;2023-03-15T15:04:21;94964.47;;;5.74;48.55
9538;BME280;4807;48.024;11.726;2023-03-15T15:07:29;94953.50;;;5.86;47.63
9538;BME280;4807;48.024;11.726;2023-03-15T15:10:38;94954.88;;;5.73;48.19
9538;BME280;4807;48.024;11.726;2023-03-15T15:13:48;94951.88;;;5.76;48.75
9538;BME280;4807;48.024;11.726;2023-03-15T15:16:56;94948.56;;;5.91;49.37
9538;BME280;4807;48.024;11.726;2023-03-15T15:20:06;94950.72;;;5.79;50.31
9538;BME280;4807;48.024;11.726;2023-03-15T15:23:19;94954.63;;;5.44;51.48
9538;BME280;4807;48.024;11.726;2023-03-15T15:26:30;94967.25;;;5.26;52.81
9538;BME280;4807;48.024;11.726;2023-03-15T15:29:40;94966.75;;;5.14;52.83
9538;BME280;4807;48.024;11.726;2023-03-15T15:32:48;94963.97;;;5.08;52.97
9538;BME280;4807;48.024;11.726;2023-03-15T15:35:57;94960.66;;;5.14;51.47
9538;BME280;4807;48.024;11.726;2023-03-15T15:39:22;94953.34;;;5.40;52.95
9538;BME280;4807;48.024;11.726;2023-03-15T15:42:31;94964.38;;;5.44;51.96
9538;BME280;4807;48.024;11.726;2023-03-15T15:45:41;94963.56;;;5.43;49.11
9538;BME280;4807;48.024;11.726;2023-03-15T15:48:50;94958.91;;;5.53;49.10
9538;BME280;4807;48.024;11.726;2023-03-15T15:51:58;94964.88;;;5.47;46.60
9538;BME280;4807;48.024;11.726;2023-03-15T15:55:11;94969.88;;;5.26;51.04
9538;BME280;4807;48.024;11.726;2023-03-15T15:58:19;94970.88;;;5.09;49.98
9538;BME280;4807;48.024;11.726;2023-03-15T16:01:30;94967.91;;;5.12;52.69
9538;BME280;4807;48.024;11.726;2023-03-15T16:04:38;94975.00;;;5.11;53.22
9538;BME280;4807;48.024;11.726;2023-03-15T16:07:49;94976.97;;;5.17;50.58
9538;BME280;4807;48.024;11.726;2023-03-15T16:10:57;94981.44;;;5.25;51.63
9538;BME280;4807;48.024;11.726;2023-03-15T16:14:08;94978.28;;;5.29;51.32
9538;BME280;4807;48.024;11.726;2023-03-15T16:17:20;94986.53;;;5.34;50.03
9538;BME280;4807;48.024;11.726;2023-03-15T16:20:29;94991.63;;;5.36;51.35
9538;BME280;4807;48.024;11.726;2023-03-15T16:23:37;94988.34;;;5.26;50.61
9538;BME280;4807;48.024;11.726;2023-03-15T16:26:48;95006.50;;;5.21;50.62
9538;BME280;4807;48.024;11.726;2023-03-15T16:29:57;95009.13;;;4.72;50.32
9538;BME280;4807;48.024;11.726;2023-03-15T16:33:13;95010.09;;;4.55;49.45
9538;BME280;4807;48.024;11.726;2023-03-15T16:36:22;95023.81;;;4.67;51.71
9538;BME280;4807;48.024;11.726;2023-03-15T16:39:36;95025.84;;;4.22;55.54
9538;BME280;4807;48.024;11.726;2023-03-15T16:42:44;95052.78;;;4.00;60.57
9538;BME280;4807;48.024;11.726;2023-03-15T16:45:52;95054.44;;;4.01;62.13
9538;BME280;4807;48.024;11.726;2023-03-15T16:49:02;95055.97;;;4.12;63.48
9538;BME280;4807;48.024;11.726;2023-03-15T16:52:13;95055.81;;;4.13;62.67
9538;BME280;4807;48.024;11.726;2023-03-15T16:55:25;95056.91;;;4.03;63.52
9538;BME280;4807;48.024;11.726;2023-03-15T16:58:34;95062.59;;;3.90;64.20
9538;BME280;4807;48.024;11.726;2023-03-15T17:01:42;95067.34;;;3.78;64.91
9538;BME280;4807;48.024;11.726;2023-03-15T17:04:52;95078.91;;;3.60;66.11
9538;BME280;4807;48.024;11.726;2023-03-15T17:08:01;95084.72;;;3.45;66.56
9538;BME280;4807;48.024;11.726;2023-03-15T17:11:10;95094.53;;;3.35;67.74
9538;BME280;4807;48.024;11.726;2023-03-15T17:14:25;95102.69;;;3.24;68.15
9538;BME280;4807;48.024;11.726;2023-03-15T17:17:37;95103.66;;;3.23;68.55
9538;BME280;4807;48.024;11.726;2023-03-15T17:20:48;95108.75;;;3.25;68.93
9538;BME280;4807;48.024;11.726;2023-03-15T17:23:57;95121.22;;;3.40;69.22
9538;BME280;4807;48.024;11.726;2023-03-15T17:27:05;95118.69;;;3.31;69.15
9538;BME280;4807;48.024;11.726;2023-03-15T17:30:21;95125.88;;;3.29;69.80
9538;BME280;4807;48.024;11.726;2023-03-15T17:33:30;95125.88;;;3.29;68.38
9538;BME280;4807;48.024;11.726;2023-03-15T17:36:40;95133.63;;;3.30;68.29
9538;BME280;4807;48.024;11.726;2023-03-15T17:39:48;95127.69;;;3.28;68.60
9538;BME280;4807;48.024;11.726;2023-03-15T17:42:59;95129.97;;;3.23;68.48